createdAt,value
2023-01-02T00:00:33.468Z,100908.47
2023-01-02T00:05:38.664Z,100909.22
2023-01-02T00:10:42.438Z,100880.13
2023-01-02T00:15:46.213Z,100882.69
2023-01-02T00:20:51.431Z,100879.31
2023-01-02T00:25:55.142Z,100878.59
2023-01-02T00:30:59.112Z,100864.97
2023-01-02T00:36:07.164Z,100858.91
2023-01-02T00:41:11.279Z,100862.56
2023-01-02T00:46:15.857Z,100852.34
2023-01-02T00:51:22.000Z,100843.78
2023-01-02T00:56:25.747Z,100840.47
2023-01-02T01:01:29.551Z,100830.31
2023-01-02T01:06:35.643Z,100819.19
2023-01-02T01:11:39.367Z,100820.13
2023-01-02T01:16:43.187Z,100815.12
2023-01-02T01:21:48.277Z,100811.91
2023-01-02T01:26:52.125Z,100808.62
2023-01-02T01:31:55.925Z,100811.84
2023-01-02T01:37:01.074Z,100816.28
2023-01-02T01:42:05.075Z,100810.22
2023-01-02T01:47:17.049Z,100817.34
2023-01-02T01:52:26.907Z,100840.69
2023-01-02T01:57:34.488Z,100841.78
2023-01-02T02:02:41.316Z,100843.34
2023-01-02T02:07:52.843Z,100845.88
2023-01-02T02:12:56.613Z,100852.94
2023-01-02T02:18:08.049Z,100875.56
2023-01-02T02:23:40.983Z,100860.81
2023-01-02T02:29:30.708Z,100867.53
2023-01-02T02:34:44.813Z,100870.38
2023-01-02T02:40:02.959Z,100872.13
2023-01-02T02:45:12.216Z,100870.44
2023-01-02T02:50:27.748Z,100853.25
2023-01-02T02:55:37.168Z,100851.59
2023-01-02T03:00:40.899Z,100843.78
2023-01-02T03:06:03.707Z,100842.00
2023-01-02T03:11:07.691Z,100847.37
2023-01-02T03:16:14.687Z,100836.41
2023-01-02T03:21:30.933Z,100840.72
2023-01-02T03:26:37.571Z,100850.94
2023-01-02T03:31:43.341Z,100846.13
2023-01-02T03:36:55.061Z,100839.12
2023-01-02T03:42:04.129Z,100851.97
2023-01-02T03:47:25.300Z,100858.03
2023-01-02T03:52:30.594Z,100854.44
2023-01-02T03:57:41.922Z,100874.81
2023-01-02T04:02:51.254Z,100864.37
2023-01-02T04:08:01.131Z,100878.91
2023-01-02T04:13:09.551Z,100899.53
2023-01-02T04:18:17.895Z,100902.16
2023-01-02T04:23:25.934Z,100916.00
2023-01-02T04:28:31.618Z,100899.53
2023-01-02T04:33:39.186Z,100903.75
2023-01-02T04:38:45.457Z,100902.16
2023-01-02T04:43:49.209Z,100915.06
2023-01-02T04:48:54.243Z,100921.16
2023-01-02T04:53:59.408Z,100907.47
2023-01-02T04:59:03.136Z,100922.19
2023-01-02T05:04:06.898Z,100912.72
2023-01-02T05:09:12.176Z,100933.62
2023-01-02T05:14:15.981Z,100930.28
2023-01-02T05:19:19.798Z,100915.50
2023-01-02T05:24:26.462Z,100934.28
2023-01-02T05:29:30.828Z,100940.22
2023-01-02T05:34:34.521Z,100949.63
2023-01-02T05:39:39.595Z,100934.75
2023-01-02T05:44:43.536Z,100976.13
2023-01-02T05:49:47.331Z,100980.44
2023-01-02T05:54:52.418Z,100994.09
2023-01-02T05:59:56.144Z,101060.00
2023-01-02T06:04:59.855Z,101060.47
2023-01-02T06:10:05.279Z,101055.53
2023-01-02T06:15:10.089Z,101064.25
2023-01-02T06:20:13.933Z,101064.28
2023-01-02T06:25:19.064Z,101091.53
2023-01-02T06:30:22.893Z,101100.72
2023-01-02T06:35:26.597Z,101106.41
2023-01-02T06:40:31.724Z,101113.53
2023-01-02T06:45:35.599Z,101119.38
2023-01-02T06:50:39.407Z,101124.69
2023-01-02T06:55:53.025Z,101154.50
2023-01-02T07:00:56.832Z,101163.47
2023-01-02T07:06:02.307Z,101163.88
2023-01-02T07:11:12.626Z,101193.84
2023-01-02T07:16:18.042Z,101202.97
2023-01-02T07:21:22.327Z,101218.16
2023-01-02T07:26:27.525Z,101236.41
2023-01-02T07:31:31.284Z,101250.44
2023-01-02T07:36:35.122Z,101264.31
2023-01-02T07:41:40.536Z,101280.44
2023-01-02T07:46:47.643Z,101295.38
2023-01-02T07:51:51.461Z,101307.41
2023-01-02T07:56:56.520Z,101330.53
2023-01-02T08:02:00.477Z,101332.69
2023-01-02T08:07:04.282Z,101352.75
2023-01-02T08:12:09.385Z,101365.44
2023-01-02T08:17:13.129Z,101379.28
2023-01-02T08:22:16.994Z,101377.16
2023-01-02T08:27:22.070Z,101388.38
2023-01-02T08:32:26.767Z,101375.81
2023-01-02T08:37:30.508Z,101382.94
2023-01-02T08:42:35.671Z,101406.00
2023-01-02T08:47:39.445Z,101409.31
2023-01-02T08:52:43.236Z,101418.00
2023-01-02T08:57:48.355Z,101424.13
2023-01-02T09:02:52.318Z,101428.97
2023-01-02T09:07:56.091Z,101439.91
2023-01-02T09:13:01.216Z,101433.84
2023-01-02T09:18:04.989Z,101450.59
2023-01-02T09:23:09.306Z,101458.13
2023-01-02T09:28:14.410Z,101476.91
2023-01-02T09:33:18.098Z,101483.44
2023-01-02T09:38:21.800Z,101475.88
2023-01-02T09:43:33.951Z,101493.09
2023-01-02T09:48:37.974Z,101497.66
2023-01-02T09:53:42.143Z,101510.03
2023-01-02T09:58:52.052Z,101508.44
2023-01-02T10:04:02.815Z,101516.34
2023-01-02T10:09:13.728Z,101500.84
2023-01-02T10:14:36.044Z,101503.19
2023-01-02T10:19:49.653Z,101505.69
2023-01-02T10:25:02.438Z,101497.94
2023-01-02T10:30:18.723Z,101522.41
2023-01-02T10:35:37.860Z,101544.84
2023-01-02T10:40:44.273Z,101535.94
2023-01-02T10:45:49.422Z,101535.22
2023-01-02T10:50:57.651Z,101542.25
2023-01-02T10:56:05.131Z,101546.34
2023-01-02T11:01:14.664Z,101559.94
2023-01-02T11:06:35.213Z,101574.78
2023-01-02T11:11:50.549Z,101575.13
2023-01-02T11:16:59.493Z,101572.41
2023-01-02T11:22:04.917Z,101563.31
2023-01-02T11:27:10.615Z,101573.38
2023-01-02T11:32:24.890Z,101578.81
2023-01-02T11:37:29.638Z,101574.00
2023-01-02T11:42:58.684Z,101579.59
2023-01-02T11:48:06.939Z,101577.38
2023-01-02T11:53:19.838Z,101575.03
2023-01-02T11:58:28.439Z,101582.28
2023-01-02T12:03:34.786Z,101582.56
2023-01-02T12:08:51.343Z,101592.19
2023-01-02T12:14:09.975Z,101580.75
2023-01-02T12:19:36.581Z,101585.75
2023-01-02T12:24:58.591Z,101584.16
2023-01-02T12:30:08.914Z,101588.78
2023-01-02T12:35:35.936Z,101589.22
2023-01-02T12:40:56.707Z,101592.53
2023-01-02T12:46:12.467Z,101607.41
2023-01-02T12:51:22.357Z,101617.00
2023-01-02T12:56:34.265Z,101630.37
2023-01-02T13:01:44.387Z,101629.31
2023-01-02T13:06:54.067Z,101618.03
2023-01-02T13:12:10.095Z,101609.81
2023-01-02T13:17:35.348Z,101609.09
2023-01-02T13:22:51.773Z,101620.22
2023-01-02T13:28:00.173Z,101623.22
2023-01-02T13:33:12.889Z,101623.63
2023-01-02T13:38:20.117Z,101619.41
2023-01-02T13:43:28.465Z,101622.22
2023-01-02T13:48:34.680Z,101636.75
2023-01-02T13:53:41.996Z,101646.72
2023-01-02T13:58:48.842Z,101658.75
2023-01-02T14:04:30.470Z,101667.72
2023-01-02T14:10:01.620Z,101676.53
2023-01-02T14:15:06.027Z,101681.59
2023-01-02T14:20:25.267Z,101684.19
2023-01-02T14:25:31.962Z,101684.69
2023-01-02T14:30:38.728Z,101696.03
2023-01-02T14:35:51.391Z,101699.78
2023-01-02T14:41:18.368Z,101705.47
2023-01-02T14:46:26.276Z,101726.66
2023-01-02T14:51:33.991Z,101728.81
2023-01-02T14:56:42.520Z,101724.47
2023-01-02T15:01:53.009Z,101740.16
2023-01-02T15:07:09.926Z,101743.56
2023-01-02T15:12:41.790Z,101741.56
2023-01-02T15:17:48.144Z,101757.09
2023-01-02T15:22:53.385Z,101756.19
2023-01-02T15:27:58.439Z,101781.03
2023-01-02T15:33:02.189Z,101784.38
2023-01-02T15:38:21.356Z,101803.84
2023-01-02T15:43:46.281Z,101817.38
2023-01-02T15:48:50.680Z,101826.87
2023-01-02T15:54:03.010Z,101831.94
2023-01-02T15:59:26.047Z,101841.47
2023-01-02T16:04:32.160Z,101851.50
2023-01-02T16:09:36.048Z,101863.06
2023-01-02T16:14:45.261Z,101871.31
2023-01-02T16:19:58.644Z,101882.19
2023-01-02T16:25:07.890Z,101890.81
2023-01-02T16:30:29.822Z,101891.88
2023-01-02T16:35:36.925Z,101908.94
2023-01-02T16:41:01.491Z,101914.91
2023-01-02T16:46:11.658Z,101928.28
2023-01-02T16:51:16.734Z,101946.22
2023-01-02T16:56:20.839Z,101945.56
2023-01-02T17:01:26.092Z,101955.19
2023-01-02T17:06:29.923Z,101963.84
2023-01-02T17:11:33.662Z,101968.66
2023-01-02T17:16:38.817Z,101981.66
2023-01-02T17:21:42.589Z,101994.12
2023-01-02T17:26:47.210Z,101999.81
2023-01-02T17:31:52.646Z,101993.31
2023-01-02T17:36:57.082Z,102015.97
2023-01-02T17:42:01.065Z,101993.22
2023-01-02T17:47:38.613Z,102008.34
2023-01-02T17:52:30.001Z,102032.88
2023-01-02T17:57:36.544Z,102030.53
2023-01-02T18:02:42.247Z,102041.06
2023-01-02T18:07:46.312Z,102048.91
2023-01-02T18:12:50.276Z,102051.81
2023-01-02T18:17:56.648Z,102056.19
2023-01-02T18:23:00.721Z,102080.06
2023-01-02T18:28:18.860Z,102090.69
2023-01-02T18:33:26.159Z,102107.91
2023-01-02T18:38:32.329Z,102118.44
2023-01-02T18:43:36.523Z,102122.81
2023-01-02T18:48:41.851Z,102126.06
2023-01-02T18:53:48.909Z,102133.78
2023-01-02T18:59:00.807Z,102139.03
2023-01-02T19:04:27.245Z,102153.88
2023-01-02T19:09:34.478Z,102164.28
2023-01-02T19:14:40.310Z,102163.50
2023-01-02T19:19:46.018Z,102170.78
2023-01-02T19:24:50.302Z,102194.00
2023-01-02T19:29:54.811Z,102189.81
2023-01-02T19:35:03.610Z,102196.75
2023-01-02T19:40:18.968Z,102206.31
2023-01-02T19:45:26.053Z,102226.31
2023-01-02T19:50:31.145Z,102225.47
2023-01-02T19:55:36.585Z,102233.47
2023-01-02T20:00:40.543Z,102240.69
2023-01-02T20:05:45.697Z,102237.34
2023-01-02T20:10:49.495Z,102246.94
2023-01-02T20:15:53.402Z,102242.97
2023-01-02T20:20:58.666Z,102254.41
2023-01-02T20:26:03.763Z,102252.62
2023-01-02T20:31:07.577Z,102261.50
2023-01-02T20:36:13.841Z,102266.75
2023-01-02T20:41:17.765Z,102273.81
2023-01-02T20:46:21.650Z,102276.53
2023-01-02T20:51:26.782Z,102276.38
2023-01-02T20:56:30.802Z,102287.19
2023-01-02T21:01:34.691Z,102295.94
2023-01-02T21:06:39.917Z,102296.03
2023-01-02T21:11:43.730Z,102303.75
2023-01-02T21:16:47.678Z,102305.31
2023-01-02T21:21:52.866Z,102309.91
2023-01-02T21:26:56.753Z,102309.53
2023-01-02T21:32:00.465Z,102319.56
2023-01-02T21:37:05.557Z,102315.97
2023-01-02T21:42:18.403Z,102329.34
2023-01-02T21:47:22.212Z,102324.06
2023-01-02T21:52:27.393Z,102333.81
2023-01-02T21:58:02.796Z,102339.50
2023-01-02T22:02:56.588Z,102346.03
2023-01-02T22:08:01.776Z,102351.69
2023-01-02T22:13:05.524Z,102357.72
2023-01-02T22:18:09.333Z,102369.44
2023-01-02T22:23:14.380Z,102385.75
2023-01-02T22:28:18.296Z,102393.47
2023-01-02T22:33:22.135Z,102393.97
2023-01-02T22:38:27.295Z,102398.84
2023-01-02T22:43:36.153Z,102394.50
2023-01-02T22:48:42.438Z,102404.78
2023-01-02T22:53:47.610Z,102417.28
2023-01-02T22:58:51.916Z,102423.56
2023-01-02T23:03:55.797Z,102417.38
2023-01-02T23:09:00.967Z,102423.69
2023-01-02T23:14:04.998Z,102431.53
2023-01-02T23:19:18.912Z,102434.09
2023-01-02T23:24:27.739Z,102443.84
2023-01-02T23:29:31.968Z,102445.75
2023-01-02T23:34:35.676Z,102451.75
2023-01-02T23:39:40.832Z,102457.53
2023-01-02T23:44:44.784Z,102462.91
2023-01-02T23:49:48.579Z,102468.53
2023-01-02T23:54:53.726Z,102478.28
2023-01-02T23:59:57.471Z,102478.94
